• Join FlightAware (Why Join?)
  • Login
  • US Flag 
 
06:27PM EST


 

Airport Tracker/Info


-or-


 

Live Flight TrackerFlight Track Log ✈ N110CF ✈ 10-Jul-2013 ✈ KPIT - KTDZ

Flight Track Log - Related Links

Times and Time Zones

All times are in EDT time to prevent confusion due to time zone crossing. See the N110CF flight status page for this flight to view local times or setup timezone preferences in your user account.

Time Position Orientation Groundspeed Altitude Reporting Facility
EDT Latitude Longitude Course Direction KTS MPH feet Rate Location/Type
10:30AM 40.5544 -80.4297 294° West  Level FlightAware Approximate
10:31AM 40.5664 -80.4654 294° West  Level FlightAware Approximate
10:32AM 40.5784 -80.5013 294° West  Level FlightAware Approximate
10:33AM 40.5903 -80.5371 294° West  Level FlightAware Approximate
10:34AM 40.6023 -80.5729 294° West  Level FlightAware Approximate
10:35AM 40.6143 -80.6087 294° West  Level FlightAware Approximate
10:36AM 40.6262 -80.6446 294° West  Level FlightAware Approximate
10:37AM 40.6385 -80.6814 294° West  Level FlightAware Approximate
10:38AM 40.6507 -80.7183 294° West  Level FlightAware Approximate
10:39AM 40.6630 -80.7552 294° West  Level FlightAware Approximate
10:40AM 40.6752 -80.7922 294° West  Level FlightAware Approximate
10:41AM 40.6878 -80.8289 295° West  Level FlightAware Approximate
10:42AM 40.7009 -80.8653 295° West  Level FlightAware Approximate
10:43AM 40.7139 -80.9018 295° West  Level FlightAware Approximate
10:44AM 40.7270 -80.9382 295° West  Level FlightAware Approximate
10:45AM 40.7401 -80.9747 295° West  Level FlightAware Approximate
10:46AM 40.7531 -81.0111 295° West  Level FlightAware Approximate
10:47AM 40.7662 -81.0476 295° West  Level FlightAware Approximate
10:48AM 40.7792 -81.0841 295° West  Level FlightAware Approximate
10:49AM 40.7922 -81.1206 295° West  Level FlightAware Approximate
10:50AM 40.8052 -81.1572 295° West  Level FlightAware Approximate
10:51AM 40.8182 -81.1937 295° West  Level FlightAware Approximate
10:52AM 40.8312 -81.2302 295° West  Level FlightAware Approximate
10:53AM 40.8441 -81.2668 295° West  Level FlightAware Approximate
10:54AM 40.8564 -81.3038 292° West  Level FlightAware Approximate
10:55AM 40.8681 -81.3411 292° West  Level FlightAware Approximate
10:55AM 40.8878 -81.3769 292° West 118 136 5,000  Level Cleveland Center
10:55AM 40.8981 -81.4072 294° West 120 138 5,000 -60 Level Cleveland Center
10:56AM 40.8797 -81.3785 292° West  Level FlightAware Approximate
10:57AM 40.9121 -81.4494 294° West  Level Estimated
10:57AM 40.8913 -81.4156 292° West  Level FlightAware Approximate
10:57AM 40.9267 -81.4928 294° West 115 132 4,900  Level Cleveland Center
10:58AM 40.9029 -81.4527 292° West  Level FlightAware Approximate
10:58AM 40.9389 -81.5314 293° West 118 136 4,800  Level Cleveland Center
10:59AM 40.9144 -81.4898 292° West  Level FlightAware Approximate
10:59AM 40.9531 -81.5728 294° West 129 148 4,200  Level Cleveland Center
11:00AM 40.9259 -81.5269 292° West  Level FlightAware Approximate
11:01AM 40.9714 -81.6253 295° West 123 142 4,000  Level Cleveland Center
11:01AM 40.9794 -81.6531 291° West 111 128 3,900 -60 Descending Cleveland Center
11:02AM 40.9914 -81.6889 294° West 114 131 3,900  Level Cleveland Center
11:04AM 41.0056 -81.7333 293° West 111 128 3,900 60 Level Cleveland Center
11:05AM 41.0178 -81.7692 294° West 101 116 4,100  Climbing Cleveland Center
11:06AM 41.0319 -81.8136 293° West 132 152 4,000 -60 Descending Cleveland Center
11:06AM 41.0442 -81.8467 296° West 110 127 4,000  Level Cleveland Center
11:08AM 41.0561 -81.8856 292° West 109 125 4,000  Level Cleveland Center
11:09AM 41.0661 -81.9217 290° West 108 124 4,000  Level Cleveland Center
11:10AM 41.0822 -81.9661 296° West 117 135 4,000  Level Cleveland Center
11:12AM 41.1032 -82.0323 293° West  Level FlightAware Approximate
11:19AM 41.1851 -82.2923 293° West  Level FlightAware Approximate
11:20AM 41.1968 -82.3295 293° West  Level FlightAware Approximate
11:21AM 41.2084 -82.3667 293° West  Level FlightAware Approximate
11:22AM 41.2201 -82.4039 293° West  Level FlightAware Approximate
11:23AM 41.2317 -82.4412 293° West  Level FlightAware Approximate
11:24AM 41.2433 -82.4784 293° West  Level FlightAware Approximate
11:25AM 41.2550 -82.5159 293° West  Level FlightAware Approximate
11:26AM 41.2667 -82.5532 293° West  Level FlightAware Approximate
11:27AM 41.2784 -82.5904 293° West  Level FlightAware Approximate
11:28AM 41.2900 -82.6277 293° West  Level FlightAware Approximate
11:29AM 41.3016 -82.6649 293° West  Level FlightAware Approximate
11:30AM 41.3133 -82.7022 293° West  Level FlightAware Approximate
11:31AM 41.3249 -82.7395 293° West  Level FlightAware Approximate
11:32AM 41.3355 -82.7773 285° West  Level FlightAware Approximate
11:33AM 41.3433 -82.8163 285° West  Level FlightAware Approximate
11:34AM 41.3518 -82.8550 296° West  Level FlightAware Approximate
11:35AM 41.3651 -82.8913 296° West  Level FlightAware Approximate
11:36AM 41.3784 -82.9276 296° West  Level FlightAware Approximate
11:37AM 41.3916 -82.9640 296° West  Level FlightAware Approximate
11:38AM 41.4049 -83.0004 296° West  Level FlightAware Approximate
11:39AM 41.4181 -83.0367 296° West  Level FlightAware Approximate
11:40AM 41.4313 -83.0731 296° West  Level FlightAware Approximate
11:41AM 41.4445 -83.1095 296° West  Level FlightAware Approximate
11:42AM 41.4577 -83.1460 296° West  Level FlightAware Approximate
11:43AM 41.4709 -83.1824 296° West  Level FlightAware Approximate
11:44AM 41.4839 -83.2190 289° West  Level FlightAware Approximate
11:45AM 41.4935 -83.2574 289° West  Level FlightAware Approximate
11:46AM 41.5032 -83.2958 289° West  Level FlightAware Approximate
11:47AM 41.5128 -83.3342 288° West  Level FlightAware Approximate
11:48AM 41.5224 -83.3726 288° West  Level FlightAware Approximate